This is the latest recevied weather packets stored in our database for station/object OK1CBR-13. If no packets are shown the sender has not sent any weather packets the latest 10 day(s).
| Time | Temp. | Humidity | Pressure | Rain* | Wind** | Luminosity | Snow |
|---|---|---|---|---|---|---|---|
| 1777436852 | 2.78° C | 57% | 1026.3 hPa | - | - | - | - |
| 1777435652 | 2.78° C | 56% | 1026.1 hPa | - | - | - | - |
| 1777435055 | 2.78° C | 55% | 1026 hPa | - | - | - | - |
| 1777433850 | 2.78° C | 54% | 1025.8 hPa | - | - | - | - |
| 1777433251 | 2.78° C | 54% | 1025.7 hPa | - | - | - | - |
| 1777432651 | 2.78° C | 53% | 1025.7 hPa | - | - | - | - |
| 1777432051 | 3.33° C | 53% | 1025.6 hPa | - | - | - | - |
| 1777431451 | 3.33° C | 52% | 1025.6 hPa | - | - | - | - |
| 1777430851 | 3.33° C | 52% | 1025.7 hPa | - | - | - | - |
| 1777430251 | 3.33° C | 51% | 1025.7 hPa | - | - | - | - |
| 1777429651 | 3.33° C | 51% | 1025.7 hPa | - | - | - | - |
| 1777427851 | 3.89° C | 49% | 1025.6 hPa | - | - | - | - |
| 1777427251 | 3.89° C | 49% | 1025.5 hPa | - | - | - | - |
| 1777426651 | 3.89° C | 49% | 1025.4 hPa | - | - | - | - |
| 1777426051 | 3.89° C | 48% | 1025.3 hPa | - | - | - | - |
| 1777425451 | 4.44° C | 48% | 1025.3 hPa | - | - | - | - |
| 1777424851 | 4.44° C | 47% | 1025.2 hPa | - | - | - | - |
| 1777423651 | 4.44° C | 50% | 1025.3 hPa | - | - | - | - |
| 1777422451 | 5° C | 48% | 1025.3 hPa | - | - | - | - |
| 1777421851 | 5° C | 47% | 1025.3 hPa | - | - | - | - |
| 1777406852 | 8.89° C | 36% | 1024.1 hPa | - | - | - | - |
| 1777404452 | 10.56° C | 33% | 1023.7 hPa | - | - | - | - |
| 1777403252 | 11.11° C | 32% | 1023.6 hPa | - | - | - | - |
| 1777402052 | 11.11° C | 31% | 1023.4 hPa | - | - | - | - |
| 1777400252 | 12.78° C | 30% | 1022.8 hPa | - | - | - | - |
* Rain since midnight (hover to see other rain measurements)
** Current wind speed in m/s (hover to see current wind gust speed)